Airport View

Enter AWOS ICAO identifier for current METAR.

ex. KFNL

K3K3 041435Z AUTO 29006KT 10SM CLR 22/16 A3015 RMK AO2

4 Jul 2020 15:10

Frequency: 119.975

Phone: 620-384-5869

Other Area AWOS: KJHN - KULS - KLAA - KGCK

TAF KGCK 041120Z 0412/0512 09010KT P6SM SCT200